Time;durP1;ratioP1;P1;durP2;ratioP2;P2;SDS_P1;SDS_P2;PMS_P1;PMS_P2;Temp;Humidity;BMP_temperature;BMP_pressure;BME280_temperature;BME280_humidity;BME280_pressure;Samples;Min_cycle;Max_cycle;Signal;HPM_P1;HPM_P2
2022/09/19 00:01:30;;;;;;;11.23;2.30;;;10.30;99.90;;;;;;5025358;28;20045;-75
2022/09/19 00:04:02;;;;;;;13.65;2.40;;;10.30;99.90;;;;;;5046601;28;20040;-74
2022/09/19 00:06:32;;;;;;;;;;;10.30;99.90;;;;;;5041777;28;20038;-74
2022/09/19 00:08:59;;;;;;;15.80;2.78;;;10.40;99.90;;;;;;5041455;28;19979;-75
2022/09/19 00:11:26;;;;;;;15.05;2.72;;;10.40;99.90;;;;;;5038109;28;20583;-75
2022/09/19 00:13:54;;;;;;;16.40;3.63;;;10.40;99.90;;;;;;5037528;28;20041;-75
2022/09/19 00:16:29;;;;;;;11.93;2.10;;;10.40;99.90;;;;;;5026477;28;20048;-73
2022/09/19 00:18:59;;;;;;;14.90;2.85;;;10.40;99.90;;;;;;5046996;28;20063;-74
2022/09/19 00:21:54;;;;;;;12.45;2.20;;;10.40;99.90;;;;;;5042335;28;20076;-74
2022/09/19 00:27:06;;;;;;;11.27;2.47;;;10.40;99.90;;;;;;5041174;28;20049;-74
2022/09/19 00:29:34;;;;;;;10.77;2.00;;;10.50;99.90;;;;;;5041372;28;20080;-74
2022/09/19 00:31:59;;;;;;;9.30;2.33;;;10.50;99.90;;;;;;5028005;28;20491;-73
2022/09/19 00:34:30;;;;;;;10.05;2.22;;;10.50;99.90;;;;;;5027462;28;20136;-74
2022/09/19 00:36:56;;;;;;;11.13;2.33;;;10.50;99.90;;;;;;5012639;28;20503;-73
2022/09/19 00:39:22;;;;;;;10.80;2.25;;;10.50;99.90;;;;;;5041458;28;20579;-73
2022/09/19 00:41:48;;;;;;;12.45;2.10;;;10.50;99.90;;;;;;5039653;28;20041;-74
2022/09/19 00:44:23;;;;;;;9.27;2.17;;;10.60;99.90;;;;;;5028761;28;20056;-73
2022/09/19 00:46:55;;;;;;;7.25;2.10;;;10.50;99.90;;;;;;5055534;28;20037;-73
2022/09/19 00:49:23;;;;;;;4.07;2.13;;;10.60;99.90;;;;;;5043021;28;20041;-74
2022/09/19 00:51:53;;;;;;;7.90;1.85;;;10.60;99.90;;;;;;5023896;28;20107;-73
2022/09/19 00:54:31;;;;;;;11.23;2.30;;;10.60;99.90;;;;;;5038720;28;20044;-74
2022/09/19 00:56:59;;;;;;;7.70;2.47;;;10.50;99.90;;;;;;5041220;28;20561;-74
2022/09/19 00:59:29;;;;;;;11.27;2.20;;;10.50;99.90;;;;;;5020709;28;20037;-75
2022/09/19 01:01:56;;;;;;;10.73;2.20;;;10.50;99.90;;;;;;5042509;28;20490;-75
2022/09/19 01:04:25;;;;;;;9.68;2.20;;;10.50;99.90;;;;;;5026591;28;20081;-74
2022/09/19 01:07:08;;;;;;;14.23;2.20;;;10.50;99.90;;;;;;5028585;28;20092;-73
2022/09/19 01:09:48;;;;;;;9.27;2.08;;;10.50;99.90;;;;;;5041603;28;20072;-73
2022/09/19 01:12:19;;;;;;;9.05;2.05;;;10.50;99.90;;;;;;5042534;28;20042;-74
2022/09/19 01:15:12;;;;;;;9.37;1.77;;;10.50;99.90;;;;;;5026816;28;20044;-72
2022/09/19 01:17:45;;;;;;;11.85;2.47;;;10.50;99.90;;;;;;5038410;28;20126;-73
2022/09/19 01:20:50;;;;;;;9.32;2.03;;;10.50;99.90;;;;;;5028173;28;20406;-73
2022/09/19 01:23:25;;;;;;;12.15;2.10;;;10.50;99.90;;;;;;5046001;28;20746;-73
2022/09/19 01:26:03;;;;;;;13.77;2.22;;;10.50;99.90;;;;;;5039545;28;20033;-74
2022/09/19 01:28:53;;;;;;;11.35;1.70;;;10.40;99.90;;;;;;5039098;28;20056;-71
2022/09/19 01:31:29;;;;;;;17.08;2.50;;;10.40;99.90;;;;;;5024051;28;20036;-73
2022/09/19 01:34:13;;;;;;;14.88;2.30;;;10.40;99.90;;;;;;5039101;28;20136;-73
2022/09/19 01:36:48;;;;;;;9.95;2.63;;;10.50;99.90;;;;;;5044789;28;20055;-75
2022/09/19 01:39:19;;;;;;;19.80;3.00;;;10.50;99.90;;;;;;5023035;28;20120;-72
2022/09/19 01:41:53;;;;;;;12.35;2.70;;;10.60;99.90;;;;;;5043207;28;20057;-75
2022/09/19 01:44:22;;;;;;;17.85;3.00;;;10.60;99.90;;;;;;5026450;28;20414;-75
2022/09/19 01:46:51;;;;;;;11.05;2.80;;;10.60;99.90;;;;;;5038285;28;20041;-75
2022/09/19 01:49:48;;;;;;;11.88;2.42;;;10.60;99.90;;;;;;5040916;28;20045;-75
2022/09/19 01:52:22;;;;;;;10.20;2.40;;;10.60;99.90;;;;;;5045451;28;20037;-76
2022/09/19 01:55:01;;;;;;;11.35;2.20;;;10.60;99.90;;;;;;5023937;28;20080;-75
2022/09/19 01:57:58;;;;;;;17.55;2.65;;;10.60;99.90;;;;;;5037942;28;20116;-74
2022/09/19 02:00:26;;;;;;;15.02;2.60;;;10.50;99.90;;;;;;5009838;28;20049;-76
2022/09/19 02:03:41;;;;;;;14.68;3.28;;;10.50;99.90;;;;;;5022092;28;20069;-74
2022/09/19 02:06:48;;;;;;;23.67;2.92;;;10.50;99.90;;;;;;5040499;28;20495;-75
2022/09/19 02:09:50;;;;;;;18.23;2.88;;;10.50;99.90;;;;;;5027849;28;20055;-75
2022/09/19 02:12:20;;;;;;;11.30;2.53;;;10.50;99.90;;;;;;5033464;28;20407;-74
2022/09/19 02:14:52;;;;;;;14.98;2.55;;;10.50;99.90;;;;;;5043552;28;20508;-74
2022/09/19 02:17:50;;;;;;;24.38;4.82;;;10.50;99.90;;;;;;5026935;28;20119;-74
2022/09/19 02:20:25;;;;;;;17.52;3.05;;;10.50;99.90;;;;;;5026707;28;20095;-75
2022/09/19 02:23:05;;;;;;;12.25;3.05;;;10.50;99.90;;;;;;5043059;28;20049;-74
2022/09/19 02:25:34;;;;;;;18.35;2.97;;;10.50;99.90;;;;;;5042413;28;20108;-75
2022/09/19 02:28:21;;;;;;;21.08;3.08;;;10.50;99.90;;;;;;5025403;28;20487;-75
2022/09/19 02:30:50;;;;;;;19.45;3.40;;;10.40;99.90;;;;;;5041205;28;20054;-73
2022/09/19 02:33:17;;;;;;;17.30;3.55;;;10.40;99.90;;;;;;5042181;28;20127;-74
2022/09/19 02:35:47;;;;;;;13.13;2.38;;;10.40;99.90;;;;;;5023809;28;20570;-72
2022/09/19 02:38:34;;;;;;;18.02;2.83;;;10.40;99.90;;;;;;5044144;28;20552;-75
2022/09/19 02:41:21;;;;;;;28.05;3.72;;;10.40;99.90;;;;;;5026826;28;20056;-74
2022/09/19 02:44:13;;;;;;;21.63;3.03;;;10.40;99.90;;;;;;5039796;28;20051;-75
2022/09/19 02:46:47;;;;;;;13.85;3.13;;;10.40;99.90;;;;;;5026079;28;20127;-74
2022/09/19 02:49:33;;;;;;;14.93;2.85;;;10.40;99.90;;;;;;5055792;28;20572;-75
2022/09/19 02:52:04;;;;;;;17.23;3.33;;;10.40;99.90;;;;;;5044224;28;20076;-74
2022/09/19 02:54:39;;;;;;;16.30;3.17;;;10.40;99.90;;;;;;5037411;28;20090;-75
2022/09/19 02:57:10;;;;;;;14.18;2.75;;;10.50;99.90;;;;;;5045275;28;20435;-75
2022/09/19 02:59:42;;;;;;;27.98;3.60;;;10.50;99.90;;;;;;5021951;28;20041;-74
2022/09/19 03:02:30;;;;;;;16.47;3.00;;;10.50;99.90;;;;;;5041037;28;20126;-75
2022/09/19 03:05:16;;;;;;;18.45;3.10;;;10.50;99.90;;;;;;5041474;28;20436;-75
2022/09/19 03:07:47;;;;;;;22.05;3.13;;;10.50;99.90;;;;;;5039933;28;20460;-75
2022/09/19 03:10:19;;;;;;;18.08;2.92;;;10.50;99.90;;;;;;5040881;28;20121;-74
2022/09/19 03:12:58;;;;;;;14.20;2.70;;;10.50;99.90;;;;;;5023066;28;20092;-74
2022/09/19 03:15:35;;;;;;;14.43;2.75;;;10.50;99.90;;;;;;5023529;28;20087;-74
2022/09/19 03:18:06;;;;;;;20.92;3.33;;;10.50;99.90;;;;;;5022699;28;20041;-73
2022/09/19 03:20:39;;;;;;;24.63;3.40;;;10.60;99.90;;;;;;5023973;28;20090;-75
2022/09/19 03:23:09;;;;;;;22.92;3.22;;;10.60;99.90;;;;;;5042007;28;20099;-74
2022/09/19 03:25:35;;;;;;;22.30;3.08;;;10.50;99.90;;;;;;5028424;28;20095;-74
2022/09/19 03:28:00;;;;;;;24.02;3.67;;;10.50;99.90;;;;;;5029069;28;20045;-74
2022/09/19 03:30:26;;;;;;;20.45;3.30;;;10.60;99.90;;;;;;5028348;28;20441;-74
2022/09/19 03:32:53;;;;;;;25.77;3.60;;;10.60;99.90;;;;;;5027425;28;20509;-75
2022/09/19 03:35:21;;;;;;;33.13;4.93;;;10.60;99.90;;;;;;5025793;28;20033;-74
2022/09/19 03:37:47;;;;;;;17.05;3.25;;;10.60;99.90;;;;;;5028221;28;20050;-75
2022/09/19 03:40:16;;;;;;;24.98;4.05;;;10.60;99.90;;;;;;5040635;28;20086;-75
2022/09/19 03:42:45;;;;;;;20.05;3.85;;;10.70;99.90;;;;;;5031831;28;20091;-75
2022/09/19 03:45:11;;;;;;;18.35;3.05;;;10.70;99.90;;;;;;5042246;28;20044;-75
2022/09/19 03:47:37;;;;;;;17.27;3.20;;;10.70;99.90;;;;;;5043851;28;20090;-75
2022/09/19 03:50:06;;;;;;;15.00;2.95;;;10.70;99.90;;;;;;5027223;28;20052;-74
2022/09/19 03:52:33;;;;;;;19.88;2.88;;;10.60;99.90;;;;;;5042529;28;20112;-74
2022/09/19 03:55:00;;;;;;;17.23;2.83;;;10.60;99.90;;;;;;5032598;28;20091;-73
2022/09/19 03:57:26;;;;;;;16.17;3.15;;;10.60;99.90;;;;;;5017320;28;20029;-74
2022/09/19 03:59:51;;;;;;;20.67;2.70;;;10.60;99.90;;;;;;5026066;28;20083;-73
2022/09/19 04:02:17;;;;;;;17.02;2.90;;;10.60;99.90;;;;;;5024203;28;20071;-74
2022/09/19 04:04:43;;;;;;;13.60;2.80;;;10.60;99.90;;;;;;5042697;28;20510;-75
2022/09/19 04:07:09;;;;;;;19.98;2.92;;;10.50;99.90;;;;;;5046835;28;20204;-75
2022/09/19 04:09:38;;;;;;;25.80;3.00;;;10.50;99.90;;;;;;5030797;28;20056;-75
2022/09/19 04:12:04;;;;;;;18.08;3.28;;;10.50;99.90;;;;;;5027970;28;20048;-74
2022/09/19 04:14:30;;;;;;;17.98;2.60;;;10.50;99.90;;;;;;5042383;28;20037;-74
2022/09/19 04:17:00;;;;;;;16.98;2.95;;;10.50;99.90;;;;;;5032071;28;20521;-75
2022/09/19 04:19:26;;;;;;;15.45;3.58;;;10.50;99.90;;;;;;5041768;28;20052;-74
2022/09/19 04:21:53;;;;;;;16.50;3.03;;;10.50;99.90;;;;;;5002057;28;20048;-75
2022/09/19 04:24:22;;;;;;;14.98;3.15;;;10.40;99.90;;;;;;5030762;28;20037;-74
2022/09/19 04:26:50;;;;;;;16.83;3.45;;;10.40;99.90;;;;;;5029857;28;20071;-74
2022/09/19 04:29:20;;;;;;;17.98;3.00;;;10.50;99.90;;;;;;5027505;28;20077;-75
2022/09/19 04:31:49;;;;;;;15.38;2.90;;;10.50;99.90;;;;;;5023372;28;20126;-74
2022/09/19 04:34:15;;;;;;;21.63;2.85;;;10.50;99.90;;;;;;5021777;28;20119;-75
2022/09/19 04:36:41;;;;;;;19.80;3.03;;;10.50;99.90;;;;;;5031473;28;20049;-75
2022/09/19 04:39:07;;;;;;;18.58;3.40;;;10.50;99.90;;;;;;5003852;28;20095;-75
2022/09/19 04:41:34;;;;;;;21.95;2.90;;;10.60;99.90;;;;;;5008897;28;20040;-75
2022/09/19 04:44:01;;;;;;;17.70;3.35;;;10.60;99.90;;;;;;5042310;28;20407;-75
2022/09/19 04:46:28;;;;;;;17.60;3.47;;;10.60;99.90;;;;;;5027932;28;20040;-74
2022/09/19 04:48:57;;;;;;;14.75;3.30;;;10.60;99.90;;;;;;5023063;28;20060;-74
2022/09/19 04:51:24;;;;;;;19.65;2.85;;;10.50;99.90;;;;;;5040857;28;20029;-74
2022/09/19 04:53:53;;;;;;;16.38;2.53;;;10.50;99.90;;;;;;5039812;28;20033;-75
2022/09/19 04:56:20;;;;;;;12.80;2.50;;;10.50;99.90;;;;;;5014195;28;20037;-74
2022/09/19 04:58:46;;;;;;;20.50;2.60;;;10.50;99.90;;;;;;5041260;28;20761;-74
2022/09/19 05:01:14;;;;;;;12.35;2.65;;;10.50;99.90;;;;;;5044072;28;20037;-75
2022/09/19 05:03:43;;;;;;;15.73;3.67;;;10.50;99.90;;;;;;5040469;28;20490;-74
2022/09/19 05:06:12;;;;;;;13.75;3.20;;;10.50;99.90;;;;;;5030409;28;20041;-74
2022/09/19 05:08:44;;;;;;;14.43;2.50;;;10.50;99.90;;;;;;5001915;28;20040;-75
2022/09/19 05:11:10;;;;;;;15.85;2.95;;;10.60;99.90;;;;;;5040906;28;20112;-74
2022/09/19 05:13:38;;;;;;;13.65;2.78;;;10.60;99.90;;;;;;5029054;28;20033;-75
2022/09/19 05:16:05;;;;;;;13.50;2.60;;;10.70;99.90;;;;;;5029067;28;20410;-74
2022/09/19 05:18:35;;;;;;;10.73;2.40;;;10.70;99.90;;;;;;5045260;28;20068;-75
2022/09/19 05:21:06;;;;;;;8.77;2.30;;;10.70;99.90;;;;;;5030083;28;20048;-75
2022/09/19 05:23:36;;;;;;;13.93;1.90;;;10.70;99.90;;;;;;5044944;28;20103;-75
2022/09/19 05:26:16;;;;;;;10.45;2.22;;;10.70;99.90;;;;;;5041837;28;20043;-75
2022/09/19 05:28:44;;;;;;;16.17;2.97;;;10.80;99.90;;;;;;5036363;28;20055;-74
2022/09/19 05:31:11;;;;;;;15.48;2.65;;;10.70;99.90;;;;;;5029105;28;20073;-75
2022/09/19 05:33:37;;;;;;;13.05;2.95;;;10.70;99.90;;;;;;5039812;28;20033;-75
2022/09/19 05:36:06;;;;;;;21.83;3.00;;;10.70;99.90;;;;;;5024600;28;20083;-75
2022/09/19 05:38:32;;;;;;;15.07;3.05;;;10.70;99.90;;;;;;5024538;28;20406;-75
2022/09/19 05:41:02;;;;;;;19.38;3.08;;;10.80;99.90;;;;;;5010971;28;20082;-75
2022/09/19 05:43:33;;;;;;;16.30;2.78;;;10.80;99.90;;;;;;5037820;28;20036;-75
2022/09/19 05:46:01;;;;;;;17.92;2.33;;;10.80;99.90;;;;;;5042790;28;20139;-75
2022/09/19 05:48:29;;;;;;;19.05;2.47;;;10.80;99.90;;;;;;5026412;28;20502;-75
2022/09/19 05:50:55;;;;;;;17.13;2.30;;;10.80;99.90;;;;;;5029791;28;20518;-75
2022/09/19 05:56:08;;;;;;;15.68;2.80;;;10.90;99.90;;;;;;5038734;28;20502;-75
2022/09/19 05:58:37;;;;;;;11.18;2.67;;;10.90;99.90;;;;;;5040691;28;20083;-76
2022/09/19 06:01:08;;;;;;;15.68;2.78;;;10.90;99.90;;;;;;5040910;28;20047;-76
2022/09/19 06:03:38;;;;;;;21.67;3.88;;;10.80;99.90;;;;;;5025461;28;20095;-75
2022/09/19 06:06:18;;;;;;;19.88;3.08;;;10.90;99.90;;;;;;5045104;28;20049;-75
2022/09/19 06:08:57;;;;;;;17.88;2.83;;;10.80;99.90;;;;;;5030907;28;20454;-74
2022/09/19 06:11:29;;;;;;;11.50;2.63;;;10.80;99.90;;;;;;5044855;28;20553;-74
2022/09/19 06:16:54;;;;;;;13.88;2.47;;;10.80;99.90;;;;;;5029930;28;20087;-74
2022/09/19 06:19:21;;;;;;;20.92;3.80;;;10.70;99.90;;;;;;5039259;28;20041;-76
2022/09/19 06:21:51;;;;;;;15.38;3.35;;;10.70;99.90;;;;;;5042774;28;20041;-74
2022/09/19 06:24:19;;;;;;;16.38;2.90;;;10.80;99.90;;;;;;5041399;28;20049;-75
2022/09/19 06:26:45;;;;;;;13.75;3.00;;;10.80;99.90;;;;;;5028809;28;20044;-74
2022/09/19 06:29:13;;;;;;;16.30;3.10;;;10.80;99.90;;;;;;5028064;28;20047;-74
2022/09/19 06:31:39;;;;;;;20.13;2.70;;;10.80;99.90;;;;;;5025412;28;20566;-73
2022/09/19 06:34:05;;;;;;;15.68;2.88;;;10.80;99.90;;;;;;5025139;28;20120;-73
2022/09/19 06:36:32;;;;;;;17.08;3.33;;;10.80;99.90;;;;;;5029531;28;20057;-73
2022/09/19 06:39:00;;;;;;;16.40;3.47;;;10.80;99.90;;;;;;5023340;28;20032;-73
2022/09/19 06:41:30;;;;;;;17.02;3.20;;;10.80;99.90;;;;;;5041475;28;20041;-74
2022/09/19 06:43:56;;;;;;;24.27;3.63;;;10.90;99.90;;;;;;5028038;28;20037;-71
2022/09/19 06:46:22;;;;;;;9.95;2.70;;;10.90;99.90;;;;;;5011330;28;20164;-75
2022/09/19 06:48:50;;;;;;;11.73;2.30;;;11.00;99.90;;;;;;5029072;28;20054;-74
2022/09/19 06:51:16;;;;;;;9.73;2.45;;;11.00;99.90;;;;;;5001372;28;20545;-68
2022/09/19 06:53:42;;;;;;;11.38;2.40;;;11.10;99.90;;;;;;5010197;28;20125;-75
2022/09/19 06:56:10;;;;;;;14.13;2.67;;;11.20;99.90;;;;;;5022468;28;20048;-74
2022/09/19 06:58:37;;;;;;;12.25;2.78;;;11.30;99.90;;;;;;5026645;28;20078;-73
2022/09/19 07:01:03;;;;;;;12.57;2.40;;;11.40;99.90;;;;;;5039860;28;20115;-74
2022/09/19 07:03:29;;;;;;;14.63;2.60;;;11.40;99.90;;;;;;5045007;28;20127;-74
2022/09/19 07:05:59;;;;;;;14.40;2.80;;;11.40;99.90;;;;;;5044484;28;20041;-74
2022/09/19 07:08:30;;;;;;;18.98;2.53;;;11.30;99.90;;;;;;5040652;28;20503;-76
2022/09/19 07:10:59;;;;;;;13.38;2.67;;;11.40;99.90;;;;;;5030182;28;20558;-75
2022/09/19 07:13:28;;;;;;;23.92;3.30;;;11.40;99.90;;;;;;5046433;28;20041;-75
2022/09/19 07:15:58;;;;;;;18.77;2.80;;;11.40;99.90;;;;;;5048665;28;20483;-75
2022/09/19 07:18:24;;;;;;;14.48;2.85;;;11.50;99.90;;;;;;5027104;28;20041;-74
2022/09/19 07:20:49;;;;;;;15.10;2.80;;;11.60;99.90;;;;;;5009419;28;20564;-75
2022/09/19 07:23:19;;;;;;;14.63;4.25;;;11.60;99.90;;;;;;5042509;28;20048;-75
2022/09/19 07:25:46;;;;;;;18.55;2.90;;;11.60;99.90;;;;;;5040938;28;20060;-75
2022/09/19 07:28:14;;;;;;;11.80;2.28;;;11.70;99.90;;;;;;5022927;28;20110;-75
2022/09/19 07:30:43;;;;;;;15.88;2.95;;;11.80;99.90;;;;;;5053914;28;20083;-74
2022/09/19 07:33:12;;;;;;;16.00;2.65;;;11.90;99.90;;;;;;5038374;28;20410;-75
2022/09/19 07:35:41;;;;;;;8.98;2.40;;;12.00;99.90;;;;;;5023233;28;20047;-75
2022/09/19 07:38:10;;;;;;;17.45;2.35;;;12.00;99.90;;;;;;5038311;28;20057;-75
2022/09/19 07:40:37;;;;;;;11.27;2.45;;;12.00;99.90;;;;;;5036559;28;20045;-74
2022/09/19 07:43:07;;;;;;;11.10;2.22;;;12.10;99.90;;;;;;5039564;28;20053;-75
2022/09/19 07:45:35;;;;;;;10.60;2.17;;;12.20;99.90;;;;;;5024956;28;20041;-74
2022/09/19 07:48:03;;;;;;;16.70;2.80;;;12.20;99.90;;;;;;5020198;28;20142;-75
2022/09/19 07:50:29;;;;;;;15.18;2.42;;;12.20;99.90;;;;;;5006899;28;20041;-75
2022/09/19 07:53:02;;;;;;;14.50;2.50;;;12.20;99.90;;;;;;5038839;28;20041;-75
2022/09/19 07:55:29;;;;;;;14.38;2.97;;;12.20;99.90;;;;;;5026348;28;20037;-74
2022/09/19 07:57:57;;;;;;;10.95;2.45;;;12.20;99.90;;;;;;5026424;28;20095;-76
2022/09/19 08:00:25;;;;;;;14.80;3.13;;;12.10;99.90;;;;;;5028150;28;20045;-75
2022/09/19 08:02:56;;;;;;;17.75;2.75;;;12.10;99.90;;;;;;5027464;28;20063;-75
2022/09/19 08:05:22;;;;;;;8.13;2.40;;;12.20;99.90;;;;;;5044613;28;20037;-76
2022/09/19 08:07:51;;;;;;;11.13;2.40;;;12.30;99.90;;;;;;5029373;28;20540;-75
2022/09/19 08:10:18;;;;;;;20.38;3.25;;;12.50;99.90;;;;;;5025580;28;20067;-75
2022/09/19 08:12:44;;;;;;;11.80;2.55;;;12.60;99.90;;;;;;5036275;28;20039;-75
2022/09/19 08:15:18;;;;;;;9.75;2.53;;;12.70;99.90;;;;;;5022630;28;20051;-75
2022/09/19 08:18:02;;;;;;;15.63;2.72;;;12.70;99.90;;;;;;5038207;28;20033;-73
2022/09/19 08:20:29;;;;;;;15.90;3.55;;;12.70;99.90;;;;;;5023700;28;20037;-75
2022/09/19 08:22:57;;;;;;;10.13;2.42;;;12.70;99.90;;;;;;5021542;28;20041;-76
2022/09/19 08:25:24;;;;;;;17.05;2.30;;;12.80;99.90;;;;;;5005925;28;20049;-75
2022/09/19 08:27:51;;;;;;;14.90;2.67;;;12.80;99.90;;;;;;5055747;28;20041;-75
2022/09/19 08:30:20;;;;;;;19.23;2.90;;;12.80;99.90;;;;;;5007107;28;20087;-76
2022/09/19 08:32:49;;;;;;;15.05;2.60;;;12.80;99.90;;;;;;5021372;28;20496;-75
2022/09/19 08:35:20;;;;;;;10.13;2.83;;;12.90;99.90;;;;;;5021806;28;20037;-81
2022/09/19 08:37:47;;;;;;;15.68;3.20;;;13.10;99.90;;;;;;5036190;28;20057;-81
2022/09/19 08:40:25;;;;;;;11.60;2.75;;;13.30;99.90;;;;;;5023830;28;20437;-80
2022/09/19 08:43:12;;;;;;;13.63;2.47;;;13.30;99.90;;;;;;5039320;28;20045;-80
2022/09/19 08:46:01;;;;;;;9.13;2.58;;;13.30;99.90;;;;;;5020675;28;20040;-81
2022/09/19 08:48:48;;;;;;;10.65;2.28;;;13.40;99.90;;;;;;5023194;28;20039;-80
2022/09/19 08:51:31;;;;;;;15.43;2.80;;;13.30;99.90;;;;;;5024519;28;20049;-81
2022/09/19 08:54:11;;;;;;;10.15;2.28;;;13.30;99.90;;;;;;5022434;28;20040;-84
2022/09/19 08:56:38;;;;;;;9.02;2.17;;;13.50;99.90;;;;;;5040047;28;20044;-83
2022/09/19 08:59:11;;;;;;;18.27;2.78;;;13.60;99.90;;;;;;5027772;28;20045;-84
2022/09/19 09:01:38;;;;;;;8.57;2.10;;;13.80;99.90;;;;;;5057791;28;20040;-77
2022/09/19 09:04:32;;;;;;;12.55;2.72;;;13.90;99.90;;;;;;5025299;28;20090;-80
2022/09/19 09:07:27;;;;;;;9.43;2.03;;;14.10;99.90;;;;;;5022490;28;20143;-80
2022/09/19 09:10:33;;;;;;;18.40;3.15;;;14.10;99.90;;;;;;5025094;28;20037;-80
2022/09/19 09:13:03;;;;;;;17.40;3.08;;;14.20;99.90;;;;;;5036472;28;20052;-80
2022/09/19 09:15:58;;;;;;;15.40;3.05;;;14.30;99.90;;;;;;5022501;28;20072;-80
2022/09/19 09:18:44;;;;;;;14.27;2.22;;;14.40;99.90;;;;;;5021990;28;20566;-79
2022/09/19 09:21:47;;;;;;;15.70;3.17;;;14.50;99.90;;;;;;5027019;28;20041;-79
2022/09/19 09:24:32;;;;;;;8.52;1.83;;;14.60;99.90;;;;;;5025790;28;20128;-79
2022/09/19 09:27:01;;;;;;;9.73;2.28;;;14.70;99.90;;;;;;5039116;28;20052;-79
2022/09/19 09:29:41;;;;;;;17.55;2.58;;;14.70;99.90;;;;;;5039433;28;20056;-79
2022/09/19 09:32:22;;;;;;;15.23;3.30;;;14.80;99.90;;;;;;5035366;28;20059;-79
2022/09/19 09:35:26;;;;;;;13.15;2.42;;;14.90;99.90;;;;;;5038820;28;20040;-78
2022/09/19 09:38:01;;;;;;;16.85;3.22;;;15.00;99.90;;;;;;5019734;28;20049;-73
2022/09/19 09:44:19;;;;;;;14.75;2.72;;;15.30;99.90;;;;;;5035521;28;20053;-73
2022/09/19 09:46:54;;;;;;;7.10;1.98;;;15.40;99.90;;;;;;5057236;28;20039;-74
2022/09/19 09:49:22;;;;;;;19.35;3.03;;;15.40;99.90;;;;;;5041184;28;20072;-74
2022/09/19 09:52:17;;;;;;;12.00;2.63;;;15.40;99.90;;;;;;5029950;28;20036;-74
2022/09/19 09:58:09;;;;;;;;;;;15.50;99.90;;;;;;5055221;28;20572;-73
2022/09/19 10:03:49;;;;;;;12.57;2.72;;;15.70;99.90;;;;;;5052328;28;20040;-71
2022/09/19 10:06:29;;;;;;;18.05;2.75;;;15.60;99.90;;;;;;5035739;28;20052;-71
2022/09/19 10:09:13;;;;;;;11.88;2.75;;;15.70;99.90;;;;;;5038295;28;20493;-71
2022/09/19 10:12:08;;;;;;;11.80;2.60;;;15.60;99.90;;;;;;5023503;28;20033;-71
2022/09/19 10:14:38;;;;;;;9.65;2.08;;;15.80;99.90;;;;;;5005865;28;20084;-72
2022/09/19 10:17:06;;;;;;;11.85;3.05;;;15.90;99.90;;;;;;5039994;28;20029;-72
2022/09/19 10:19:47;;;;;;;13.50;2.70;;;16.00;99.90;;;;;;5020060;28;20132;-70
2022/09/19 10:22:15;;;;;;;8.70;2.47;;;15.90;99.90;;;;;;5033945;28;20142;-71
2022/09/19 10:24:45;;;;;;;9.45;2.95;;;15.70;99.90;;;;;;5031080;28;20119;-73
2022/09/19 10:27:24;;;;;;;8.48;2.05;;;15.30;99.90;;;;;;5039467;28;20532;-73
2022/09/19 10:30:26;;;;;;;14.48;2.28;;;15.00;99.90;;;;;;5039675;28;20040;-73
2022/09/19 10:32:53;;;;;;;12.18;2.67;;;14.70;99.90;;;;;;5039109;28;20126;-74
2022/09/19 10:35:25;;;;;;;12.93;2.60;;;14.40;99.90;;;;;;5039107;28;20084;-73
2022/09/19 10:38:15;;;;;;;13.00;3.25;;;14.20;99.90;;;;;;5038658;28;20065;-73
2022/09/19 10:41:01;;;;;;;9.57;2.22;;;14.00;99.90;;;;;;5039025;28;20130;-73
2022/09/19 10:43:46;;;;;;;12.43;3.00;;;14.20;99.90;;;;;;5024602;28;20514;-73
2022/09/19 10:46:20;;;;;;;13.30;2.92;;;14.50;99.90;;;;;;5044108;28;20094;-73
2022/09/19 10:48:57;;;;;;;13.32;3.72;;;14.90;99.90;;;;;;5043901;28;20498;-71
2022/09/19 10:51:36;;;;;;;13.10;2.92;;;15.30;99.90;;;;;;5041140;28;20799;-71
2022/09/19 10:54:11;;;;;;;10.18;2.88;;;15.40;99.90;;;;;;5027339;28;20075;-71
2022/09/19 10:56:40;;;;;;;7.57;2.40;;;15.10;99.90;;;;;;5040002;28;20032;-71
2022/09/19 10:59:26;;;;;;;8.05;1.77;;;14.70;99.90;;;;;;5040051;28;20088;-72
2022/09/19 11:02:18;;;;;;;5.32;1.40;;;14.40;99.90;;;;;;5040204;28;20057;-71
2022/09/19 11:04:59;;;;;;;7.72;2.00;;;14.10;99.90;;;;;;5021607;28;20079;-72
2022/09/19 11:07:30;;;;;;;9.23;2.08;;;14.00;99.90;;;;;;5037377;28;20563;-72
2022/09/19 11:09:59;;;;;;;5.55;1.77;;;14.00;99.90;;;;;;5024356;28;20040;-72
2022/09/19 11:12:27;;;;;;;6.07;1.90;;;13.90;99.90;;;;;;5034760;28;20036;-72
2022/09/19 11:14:57;;;;;;;8.68;2.05;;;13.90;99.90;;;;;;5021675;28;20045;-72
2022/09/19 11:17:31;;;;;;;9.05;1.88;;;13.90;99.90;;;;;;5060396;28;20029;-71
2022/09/19 11:20:16;;;;;;;8.30;2.03;;;14.00;99.90;;;;;;5043949;28;20049;-72
2022/09/19 11:23:13;;;;;;;9.68;2.38;;;14.10;99.90;;;;;;5025100;28;20048;-72
2022/09/19 11:26:13;;;;;;;6.57;1.80;;;14.30;99.90;;;;;;5025552;28;20037;-72
2022/09/19 11:29:21;;;;;;;5.97;1.70;;;14.60;99.90;;;;;;5040894;28;20415;-72
2022/09/19 11:31:50;;;;;;;11.05;2.38;;;14.80;99.90;;;;;;5040898;28;20045;-72
2022/09/19 11:34:41;;;;;;;7.22;1.63;;;15.10;99.90;;;;;;5039845;28;20036;-71
2022/09/19 11:37:26;;;;;;;9.60;2.70;;;15.30;99.90;;;;;;5040104;28;20426;-72
2022/09/19 11:40:14;;;;;;;12.75;2.88;;;15.50;99.90;;;;;;5026837;28;20100;-71
2022/09/19 11:42:49;;;;;;;11.48;2.55;;;15.70;99.90;;;;;;5038053;28;20041;-71
2022/09/19 11:45:17;;;;;;;11.98;2.92;;;15.90;99.90;;;;;;5037018;28;20136;-71
2022/09/19 11:48:12;;;;;;;9.10;2.63;;;16.20;99.90;;;;;;5044025;28;20494;-71
2022/09/19 11:50:59;;;;;;;8.73;2.58;;;16.20;99.90;;;;;;5027898;28;20052;-71
2022/09/19 11:54:09;;;;;;;13.82;2.22;;;16.40;99.90;;;;;;5039602;28;20044;-72
2022/09/19 11:56:41;;;;;;;6.97;2.03;;;16.40;99.90;;;;;;4966486;28;20100;-72
2022/09/19 11:59:33;;;;;;;9.88;2.30;;;16.30;99.90;;;;;;5010784;28;20049;-72
2022/09/19 12:02:20;;;;;;;8.90;2.30;;;16.40;99.90;;;;;;5020121;28;20069;-72
2022/09/19 12:05:04;;;;;;;7.22;2.05;;;16.40;99.90;;;;;;5054573;28;20045;-72
2022/09/19 12:07:38;;;;;;;11.10;2.70;;;16.50;99.90;;;;;;5032469;28;20505;-72
2022/09/19 12:10:24;;;;;;;5.75;1.80;;;16.50;99.90;;;;;;5034751;28;20057;-72
2022/09/19 12:13:03;;;;;;;10.23;2.47;;;16.60;99.90;;;;;;5015861;28;20102;-71
2022/09/19 12:15:35;;;;;;;9.65;2.53;;;16.60;99.90;;;;;;5049257;28;20386;-71
2022/09/19 12:18:17;;;;;;;7.57;2.17;;;16.70;99.90;;;;;;5032295;28;20044;-71
2022/09/19 12:20:49;;;;;;;6.45;2.20;;;16.70;99.90;;;;;;5019761;28;20052;-72
2022/09/19 12:26:29;;;;;;;16.42;3.63;;;16.80;99.90;;;;;;5046655;28;20053;-72
2022/09/19 12:29:03;;;;;;;15.55;2.80;;;16.90;99.90;;;;;;5030322;28;20056;-70
2022/09/19 12:31:34;;;;;;;10.52;2.67;;;16.30;99.90;;;;;;5051332;28;20119;-72
2022/09/19 12:34:10;;;;;;;9.90;2.30;;;16.10;99.90;;;;;;5019303;28;20597;-71
2022/09/19 12:36:50;;;;;;;7.60;2.10;;;16.10;99.90;;;;;;5035774;28;20135;-71
2022/09/19 12:39:27;;;;;;;9.45;2.20;;;16.20;99.90;;;;;;5019050;28;20052;-71
2022/09/19 12:42:28;;;;;;;10.73;2.40;;;16.20;99.90;;;;;;5034344;28;20041;-71
2022/09/19 12:45:18;;;;;;;7.90;2.22;;;15.90;99.90;;;;;;5017669;28;20080;-73
2022/09/19 12:48:04;;;;;;;17.27;3.22;;;15.90;99.90;;;;;;5037094;28;20060;-72
2022/09/19 12:50:42;;;;;;;8.73;2.67;;;15.90;99.90;;;;;;5021440;28;20425;-71
2022/09/19 12:53:13;;;;;;;5.22;1.98;;;15.60;99.90;;;;;;5034107;28;20127;-71
2022/09/19 12:55:50;;;;;;;8.03;2.40;;;15.30;99.90;;;;;;5021046;28;20033;-72
2022/09/19 12:58:20;;;;;;;7.72;1.83;;;15.10;99.90;;;;;;5036240;28;20041;-72
2022/09/19 13:00:48;;;;;;;6.80;2.33;;;14.80;99.90;;;;;;5034506;28;20059;-71
2022/09/19 13:03:35;;;;;;;7.28;1.58;;;14.50;99.90;;;;;;5019926;28;20044;-71
2022/09/19 13:06:10;;;;;;;6.90;2.20;;;14.40;99.90;;;;;;5052385;28;20045;-71
2022/09/19 13:08:44;;;;;;;10.40;2.17;;;14.40;99.90;;;;;;5051073;28;20085;-72
2022/09/19 13:11:26;;;;;;;11.77;2.30;;;14.40;99.90;;;;;;5033948;28;20037;-71
2022/09/19 13:14:06;;;;;;;6.53;1.70;;;14.60;99.90;;;;;;5017830;28;20160;-72
2022/09/19 13:16:35;;;;;;;7.00;2.17;;;14.90;99.90;;;;;;5019776;28;20058;-71
2022/09/19 13:24:42;;;;;;;11.45;2.67;;;15.40;99.90;;;;;;5036694;28;20045;-71
2022/09/19 13:27:09;;;;;;;6.38;1.90;;;15.50;99.90;;;;;;5052034;28;20103;-72
2022/09/19 13:29:35;;;;;;;10.38;2.25;;;15.60;99.90;;;;;;5018029;28;20556;-71
2022/09/19 13:32:04;;;;;;;10.57;2.30;;;15.80;99.90;;;;;;5017088;28;20049;-71
2022/09/19 13:34:39;;;;;;;8.52;2.17;;;16.00;99.90;;;;;;5016216;28;20115;-71
2022/09/19 13:37:32;;;;;;;9.85;2.03;;;16.20;99.90;;;;;;5016408;28;20086;-71
2022/09/19 13:40:39;;;;;;;10.52;2.40;;;16.40;99.90;;;;;;5020197;28;20537;-71
2022/09/19 13:43:17;;;;;;;9.88;2.15;;;16.40;99.90;;;;;;5034641;28;20406;-71
2022/09/19 13:45:56;;;;;;;5.05;1.92;;;16.30;99.90;;;;;;5034300;28;20056;-72